sensor_id;sensor_type;location;lat;lon;timestamp;pressure;altitude;pressure_sealevel;temperature;humidity
9415;BME280;4746;35.664;139.738;2023-05-02T00:02:23;100827.84;;;21.07;28.00
9415;BME280;4746;35.664;139.738;2023-05-02T00:04:51;100826.13;;;21.06;27.72
9415;BME280;4746;35.664;139.738;2023-05-02T00:07:19;100813.09;;;21.06;28.00
9415;BME280;4746;35.664;139.738;2023-05-02T00:09:47;100813.94;;;21.08;28.09
9415;BME280;4746;35.664;139.738;2023-05-02T00:12:17;100828.63;;;21.10;27.96
9415;BME280;4746;35.664;139.738;2023-05-02T00:14:44;100839.84;;;21.12;28.30
9415;BME280;4746;35.664;139.738;2023-05-02T00:17:19;100827.59;;;21.16;27.93
9415;BME280;4746;35.664;139.738;2023-05-02T00:19:47;100853.81;;;21.10;28.19
9415;BME280;4746;35.664;139.738;2023-05-02T00:22:14;100833.88;;;21.09;27.87
9415;BME280;4746;35.664;139.738;2023-05-02T00:24:42;100859.16;;;21.05;27.39
9415;BME280;4746;35.664;139.738;2023-05-02T00:27:09;100870.44;;;21.06;27.87
9415;BME280;4746;35.664;139.738;2023-05-02T00:29:37;100862.56;;;21.09;27.94
9415;BME280;4746;35.664;139.738;2023-05-02T00:32:06;100859.13;;;21.07;27.59
9415;BME280;4746;35.664;139.738;2023-05-02T00:34:33;100867.72;;;21.10;27.84
9415;BME280;4746;35.664;139.738;2023-05-02T00:37:01;100877.09;;;21.17;28.02
9415;BME280;4746;35.664;139.738;2023-05-02T00:39:28;100877.72;;;21.27;28.05
9415;BME280;4746;35.664;139.738;2023-05-02T00:41:59;100838.38;;;21.36;28.03
9415;BME280;4746;35.664;139.738;2023-05-02T00:44:28;100869.75;;;21.33;28.34
9415;BME280;4746;35.664;139.738;2023-05-02T00:46:57;100889.69;;;21.34;28.42
9415;BME280;4746;35.664;139.738;2023-05-02T00:49:24;100880.97;;;21.35;27.83
9415;BME280;4746;35.664;139.738;2023-05-02T00:51:54;100876.63;;;21.35;27.36
9415;BME280;4746;35.664;139.738;2023-05-02T00:54:21;100894.91;;;21.34;27.66
9415;BME280;4746;35.664;139.738;2023-05-02T00:56:49;100857.34;;;21.41;27.88
9415;BME280;4746;35.664;139.738;2023-05-02T00:59:17;100897.97;;;21.49;27.99
9415;BME280;4746;35.664;139.738;2023-05-02T01:11:14;100878.09;;;21.77;27.39
9415;BME280;4746;35.664;139.738;2023-05-02T01:13:46;100883.53;;;21.69;27.64
9415;BME280;4746;35.664;139.738;2023-05-02T01:16:18;100883.47;;;21.72;28.01
9415;BME280;4746;35.664;139.738;2023-05-02T01:18:47;100897.56;;;21.66;28.09
9415;BME280;4746;35.664;139.738;2023-05-02T01:21:16;100879.44;;;21.61;27.79
9415;BME280;4746;35.664;139.738;2023-05-02T01:26:52;100890.91;;;21.86;27.03
9415;BME280;4746;35.664;139.738;2023-05-02T01:29:23;100874.59;;;21.79;27.10
9415;BME280;4746;35.664;139.738;2023-05-02T01:31:51;100878.09;;;21.78;26.68
9415;BME280;4746;35.664;139.738;2023-05-02T01:34:22;100875.38;;;21.81;26.78
9415;BME280;4746;35.664;139.738;2023-05-02T01:36:51;100882.44;;;21.78;26.48
9415;BME280;4746;35.664;139.738;2023-05-02T01:39:25;100870.97;;;21.83;26.81
9415;BME280;4746;35.664;139.738;2023-05-02T01:41:56;100891.56;;;21.94;26.26
9415;BME280;4746;35.664;139.738;2023-05-02T01:44:26;100893.31;;;21.93;26.22
9415;BME280;4746;35.664;139.738;2023-05-02T01:46:59;100875.09;;;21.92;25.69
9415;BME280;4746;35.664;139.738;2023-05-02T01:49:32;100857.53;;;21.97;25.46
9415;BME280;4746;35.664;139.738;2023-05-02T01:52:05;100872.25;;;21.99;25.19
9415;BME280;4746;35.664;139.738;2023-05-02T01:54:36;100868.75;;;22.00;24.96
9415;BME280;4746;35.664;139.738;2023-05-02T01:57:07;100858.94;;;22.08;25.28
9415;BME280;4746;35.664;139.738;2023-05-02T01:59:37;100840.56;;;22.11;24.73
9415;BME280;4746;35.664;139.738;2023-05-02T02:02:08;100855.34;;;22.12;24.84
9415;BME280;4746;35.664;139.738;2023-05-02T02:04:39;100850.81;;;22.17;24.76
9415;BME280;4746;35.664;139.738;2023-05-02T02:07:12;100847.13;;;22.24;24.56
9415;BME280;4746;35.664;139.738;2023-05-02T02:09:40;100861.00;;;22.26;25.01
9415;BME280;4746;35.664;139.738;2023-05-02T02:14:59;100831.72;;;22.44;24.26
9415;BME280;4746;35.664;139.738;2023-05-02T02:20:24;100847.22;;;22.50;24.13
9415;BME280;4746;35.664;139.738;2023-05-02T02:22:53;100843.00;;;22.46;23.81
9415;BME280;4746;35.664;139.738;2023-05-02T02:25:23;100828.94;;;22.50;23.66
9415;BME280;4746;35.664;139.738;2023-05-02T02:27:53;100850.06;;;22.42;23.50
9415;BME280;4746;35.664;139.738;2023-05-02T02:30:21;100843.63;;;22.54;23.20
9415;BME280;4746;35.664;139.738;2023-05-02T02:32:49;100869.59;;;22.58;22.91
9415;BME280;4746;35.664;139.738;2023-05-02T02:35:17;100870.25;;;22.65;23.25
9415;BME280;4746;35.664;139.738;2023-05-02T02:38:09;100859.41;;;22.77;22.95
9415;BME280;4746;35.664;139.738;2023-05-02T02:40:58;100852.19;;;22.85;23.34
9415;BME280;4746;35.664;139.738;2023-05-02T02:43:52;100858.69;;;22.99;23.26
9415;BME280;4746;35.664;139.738;2023-05-02T02:49:29;100833.69;;;23.16;23.49
9415;BME280;4746;35.664;139.738;2023-05-02T02:55:23;100846.28;;;23.31;23.05
9415;BME280;4746;35.664;139.738;2023-05-02T03:01:01;100833.38;;;23.50;22.67
9415;BME280;4746;35.664;139.738;2023-05-02T03:03:31;100873.44;;;23.52;22.63
9415;BME280;4746;35.664;139.738;2023-05-02T03:05:59;100816.72;;;23.52;22.29
9415;BME280;4746;35.664;139.738;2023-05-02T03:08:27;100844.31;;;23.61;22.74
9415;BME280;4746;35.664;139.738;2023-05-02T03:11:04;100817.81;;;23.70;22.43
9415;BME280;4746;35.664;139.738;2023-05-02T03:13:32;100835.84;;;23.79;22.49
9415;BME280;4746;35.664;139.738;2023-05-02T03:16:39;100851.38;;;24.06;23.08
9415;BME280;4746;35.664;139.738;2023-05-02T03:19:07;100847.72;;;24.10;22.36
9415;BME280;4746;35.664;139.738;2023-05-02T03:21:35;100843.63;;;24.03;22.49
9415;BME280;4746;35.664;139.738;2023-05-02T03:24:05;100837.19;;;24.11;22.59
9415;BME280;4746;35.664;139.738;2023-05-02T03:26:32;100841.94;;;24.25;23.37
9415;BME280;4746;35.664;139.738;2023-05-02T03:29:00;100856.31;;;24.36;22.98
9415;BME280;4746;35.664;139.738;2023-05-02T03:31:29;100850.31;;;24.55;22.50
9415;BME280;4746;35.664;139.738;2023-05-02T03:33:56;100847.09;;;24.70;22.52
9415;BME280;4746;35.664;139.738;2023-05-02T03:36:24;100841.59;;;24.76;22.35
9415;BME280;4746;35.664;139.738;2023-05-02T03:38:51;100853.66;;;24.80;22.13
9415;BME280;4746;35.664;139.738;2023-05-02T03:41:19;100884.16;;;24.83;22.20
9415;BME280;4746;35.664;139.738;2023-05-02T03:43:46;100850.16;;;25.01;21.95
9415;BME280;4746;35.664;139.738;2023-05-02T03:46:14;100857.16;;;25.22;22.04
9415;BME280;4746;35.664;139.738;2023-05-02T03:48:41;100848.06;;;25.30;21.50
9415;BME280;4746;35.664;139.738;2023-05-02T03:51:09;100849.16;;;25.45;21.49
9415;BME280;4746;35.664;139.738;2023-05-02T03:53:37;100849.47;;;25.57;21.27
9415;BME280;4746;35.664;139.738;2023-05-02T03:56:05;100850.00;;;25.65;21.14
9415;BME280;4746;35.664;139.738;2023-05-02T03:58:34;100853.63;;;25.83;20.98
9415;BME280;4746;35.664;139.738;2023-05-02T04:01:02;100835.53;;;25.95;20.68
9415;BME280;4746;35.664;139.738;2023-05-02T04:03:29;100860.53;;;26.03;20.59
9415;BME280;4746;35.664;139.738;2023-05-02T04:05:57;100841.34;;;26.01;20.76
9415;BME280;4746;35.664;139.738;2023-05-02T04:08:25;100858.81;;;26.02;20.72
9415;BME280;4746;35.664;139.738;2023-05-02T04:10:52;100847.75;;;26.14;20.80
9415;BME280;4746;35.664;139.738;2023-05-02T04:13:20;100827.19;;;26.05;20.08
9415;BME280;4746;35.664;139.738;2023-05-02T04:15:47;100810.63;;;26.03;20.45
9415;BME280;4746;35.664;139.738;2023-05-02T04:18:15;100838.78;;;26.18;20.35
9415;BME280;4746;35.664;139.738;2023-05-02T04:20:45;100808.84;;;26.22;20.44
9415;BME280;4746;35.664;139.738;2023-05-02T04:23:13;100813.19;;;26.23;20.37
9415;BME280;4746;35.664;139.738;2023-05-02T04:25:41;100816.81;;;26.39;20.53
9415;BME280;4746;35.664;139.738;2023-05-02T04:28:08;100821.19;;;26.57;20.43
9415;BME280;4746;35.664;139.738;2023-05-02T04:30:36;100822.34;;;26.68;20.30
9415;BME280;4746;35.664;139.738;2023-05-02T04:33:03;100816.56;;;26.79;20.36
9415;BME280;4746;35.664;139.738;2023-05-02T04:35:31;100851.09;;;26.90;20.37
9415;BME280;4746;35.664;139.738;2023-05-02T04:37:58;100816.44;;;26.82;19.90
9415;BME280;4746;35.664;139.738;2023-05-02T04:40:26;100804.03;;;26.84;20.35
9415;BME280;4746;35.664;139.738;2023-05-02T04:42:53;100785.84;;;26.98;20.12
9415;BME280;4746;35.664;139.738;2023-05-02T04:45:21;100795.75;;;27.10;19.53
9415;BME280;4746;35.664;139.738;2023-05-02T04:47:48;100812.91;;;27.17;19.33
9415;BME280;4746;35.664;139.738;2023-05-02T04:50:16;100812.91;;;27.17;19.25
9415;BME280;4746;35.664;139.738;2023-05-02T04:52:43;100806.03;;;27.14;19.21
9415;BME280;4746;35.664;139.738;2023-05-02T04:55:11;100792.94;;;27.13;18.88
9415;BME280;4746;35.664;139.738;2023-05-02T04:57:39;100822.81;;;27.12;18.77
9415;BME280;4746;35.664;139.738;2023-05-02T05:00:11;100773.50;;;27.15;19.49
9415;BME280;4746;35.664;139.738;2023-05-02T05:02:38;100790.31;;;27.13;18.99
9415;BME280;4746;35.664;139.738;2023-05-02T05:05:06;100803.44;;;27.30;18.68
9415;BME280;4746;35.664;139.738;2023-05-02T05:07:34;100770.69;;;27.35;18.61
9415;BME280;4746;35.664;139.738;2023-05-02T05:10:01;100769.88;;;27.50;19.11
9415;BME280;4746;35.664;139.738;2023-05-02T05:12:29;100799.28;;;27.58;19.17
9415;BME280;4746;35.664;139.738;2023-05-02T05:14:57;100798.34;;;27.76;18.70
9415;BME280;4746;35.664;139.738;2023-05-02T05:17:24;100798.03;;;27.82;18.76
9415;BME280;4746;35.664;139.738;2023-05-02T05:19:52;100755.28;;;27.92;17.66
9415;BME280;4746;35.664;139.738;2023-05-02T05:22:20;100784.78;;;27.99;18.18
9415;BME280;4746;35.664;139.738;2023-05-02T05:24:54;100773.50;;;28.27;17.96
9415;BME280;4746;35.664;139.738;2023-05-02T05:27:22;100767.06;;;28.62;17.33
9415;BME280;4746;35.664;139.738;2023-05-02T05:29:49;100782.19;;;28.89;17.57
9415;BME280;4746;35.664;139.738;2023-05-02T05:32:17;100776.59;;;29.23;17.27
9415;BME280;4746;35.664;139.738;2023-05-02T05:34:50;100766.28;;;29.48;16.32
9415;BME280;4746;35.664;139.738;2023-05-02T05:37:18;100754.38;;;29.41;16.48
9415;BME280;4746;35.664;139.738;2023-05-02T05:39:45;100768.06;;;29.75;16.26
9415;BME280;4746;35.664;139.738;2023-05-02T05:42:13;100781.28;;;30.03;16.08
9415;BME280;4746;35.664;139.738;2023-05-02T05:44:40;100796.22;;;30.44;15.91
9415;BME280;4746;35.664;139.738;2023-05-02T05:47:08;100785.19;;;30.64;15.33
9415;BME280;4746;35.664;139.738;2023-05-02T05:49:35;100770.59;;;30.71;15.10
9415;BME280;4746;35.664;139.738;2023-05-02T05:52:03;100784.66;;;30.98;15.91
9415;BME280;4746;35.664;139.738;2023-05-02T05:54:30;100789.06;;;30.85;15.81
9415;BME280;4746;35.664;139.738;2023-05-02T05:56:58;100776.16;;;30.40;15.40
9415;BME280;4746;35.664;139.738;2023-05-02T05:59:25;100786.19;;;30.49;16.37
9415;BME280;4746;35.664;139.738;2023-05-02T06:01:53;100783.38;;;31.55;15.61
9415;BME280;4746;35.664;139.738;2023-05-02T06:04:22;100758.19;;;32.91;14.66
9415;BME280;4746;35.664;139.738;2023-05-02T06:06:49;100777.47;;;34.05;13.49
9415;BME280;4746;35.664;139.738;2023-05-02T06:09:17;100769.47;;;35.10;13.24
9415;BME280;4746;35.664;139.738;2023-05-02T06:11:45;100769.97;;;35.95;12.63
9415;BME280;4746;35.664;139.738;2023-05-02T06:14:12;100783.44;;;35.93;11.96
9415;BME280;4746;35.664;139.738;2023-05-02T06:16:40;100758.06;;;36.17;12.28
9415;BME280;4746;35.664;139.738;2023-05-02T06:19:08;100744.97;;;36.63;11.52
9415;BME280;4746;35.664;139.738;2023-05-02T06:21:37;100744.50;;;36.77;11.60
9415;BME280;4746;35.664;139.738;2023-05-02T06:24:05;100778.88;;;36.91;11.09
9415;BME280;4746;35.664;139.738;2023-05-02T06:26:33;100753.75;;;37.39;11.00
9415;BME280;4746;35.664;139.738;2023-05-02T06:29:00;100772.22;;;37.78;10.89
9415;BME280;4746;35.664;139.738;2023-05-02T06:31:29;100767.84;;;38.04;10.56
9415;BME280;4746;35.664;139.738;2023-05-02T06:33:56;100762.16;;;38.61;10.04
9415;BME280;4746;35.664;139.738;2023-05-02T06:36:24;100778.50;;;38.93;10.29
9415;BME280;4746;35.664;139.738;2023-05-02T06:38:51;100770.31;;;39.11;10.09
9415;BME280;4746;35.664;139.738;2023-05-02T06:41:19;100781.25;;;39.00;9.78
9415;BME280;4746;35.664;139.738;2023-05-02T06:43:47;100771.91;;;39.04;10.43
9415;BME280;4746;35.664;139.738;2023-05-02T06:46:14;100761.63;;;39.17;10.07
9415;BME280;4746;35.664;139.738;2023-05-02T06:48:44;100764.47;;;39.41;9.86
9415;BME280;4746;35.664;139.738;2023-05-02T06:51:14;100774.38;;;39.66;9.89
9415;BME280;4746;35.664;139.738;2023-05-02T06:53:42;100780.25;;;39.95;9.56
9415;BME280;4746;35.664;139.738;2023-05-02T06:56:09;100792.06;;;40.18;9.90
9415;BME280;4746;35.664;139.738;2023-05-02T06:58:39;100790.78;;;40.30;9.61
9415;BME280;4746;35.664;139.738;2023-05-02T07:01:06;100800.25;;;40.08;9.86
9415;BME280;4746;35.664;139.738;2023-05-02T07:03:34;100800.38;;;39.91;9.59
9415;BME280;4746;35.664;139.738;2023-05-02T07:06:02;100807.22;;;40.27;9.64
9415;BME280;4746;35.664;139.738;2023-05-02T07:08:29;100803.47;;;40.61;9.47
9415;BME280;4746;35.664;139.738;2023-05-02T07:10:59;100814.13;;;41.02;9.56
9415;BME280;4746;35.664;139.738;2023-05-02T07:13:26;100813.50;;;41.08;9.25
9415;BME280;4746;35.664;139.738;2023-05-02T07:15:54;100804.34;;;40.85;9.22
9415;BME280;4746;35.664;139.738;2023-05-02T07:18:22;100809.66;;;40.53;9.26
9415;BME280;4746;35.664;139.738;2023-05-02T07:20:50;100823.44;;;40.58;8.86
9415;BME280;4746;35.664;139.738;2023-05-02T07:23:17;100819.66;;;40.85;8.87
9415;BME280;4746;35.664;139.738;2023-05-02T07:25:47;100825.19;;;40.75;8.74
9415;BME280;4746;35.664;139.738;2023-05-02T07:28:15;100825.91;;;41.01;8.74
9415;BME280;4746;35.664;139.738;2023-05-02T07:30:42;100818.81;;;41.32;8.61
9415;BME280;4746;35.664;139.738;2023-05-02T07:33:10;100810.72;;;41.64;8.44
9415;BME280;4746;35.664;139.738;2023-05-02T07:35:37;100835.75;;;41.80;8.40
9415;BME280;4746;35.664;139.738;2023-05-02T07:38:05;100838.28;;;41.82;8.32
9415;BME280;4746;35.664;139.738;2023-05-02T07:40:32;100846.78;;;41.55;8.04
9415;BME280;4746;35.664;139.738;2023-05-02T07:43:01;100846.09;;;41.29;8.50
9415;BME280;4746;35.664;139.738;2023-05-02T07:45:28;100849.97;;;41.34;8.75
9415;BME280;4746;35.664;139.738;2023-05-02T07:47:56;100842.41;;;41.54;8.32
9415;BME280;4746;35.664;139.738;2023-05-02T07:50:27;100858.16;;;41.73;8.37
9415;BME280;4746;35.664;139.738;2023-05-02T07:52:58;100863.66;;;42.03;8.13
9415;BME280;4746;35.664;139.738;2023-05-02T07:55:26;100861.03;;;42.25;7.95
9415;BME280;4746;35.664;139.738;2023-05-02T07:57:53;100863.47;;;42.12;8.04
9415;BME280;4746;35.664;139.738;2023-05-02T08:00:21;100866.75;;;41.92;8.08
9415;BME280;4746;35.664;139.738;2023-05-02T08:02:49;100858.88;;;41.51;7.97
9415;BME280;4746;35.664;139.738;2023-05-02T08:05:16;100846.03;;;40.97;8.53
9415;BME280;4746;35.664;139.738;2023-05-02T08:07:44;100868.22;;;40.75;8.31
9415;BME280;4746;35.664;139.738;2023-05-02T08:10:12;100869.84;;;40.60;8.30
9415;BME280;4746;35.664;139.738;2023-05-02T08:12:42;100867.66;;;40.15;8.32
9415;BME280;4746;35.664;139.738;2023-05-02T08:15:11;100874.19;;;39.62;8.93
9415;BME280;4746;35.664;139.738;2023-05-02T08:17:42;100892.19;;;39.26;8.66
9415;BME280;4746;35.664;139.738;2023-05-02T08:20:10;100909.97;;;39.10;8.99
9415;BME280;4746;35.664;139.738;2023-05-02T08:22:37;100888.72;;;39.16;9.33
9415;BME280;4746;35.664;139.738;2023-05-02T08:25:05;100905.25;;;39.29;9.16
9415;BME280;4746;35.664;139.738;2023-05-02T08:27:34;100907.41;;;39.43;9.26
9415;BME280;4746;35.664;139.738;2023-05-02T08:30:02;100898.97;;;39.38;9.37
9415;BME280;4746;35.664;139.738;2023-05-02T08:32:31;100894.06;;;39.51;9.11
9415;BME280;4746;35.664;139.738;2023-05-02T08:34:59;100899.91;;;39.29;8.68
9415;BME280;4746;35.664;139.738;2023-05-02T08:37:26;100905.06;;;39.23;9.12
9415;BME280;4746;35.664;139.738;2023-05-02T08:39:54;100902.78;;;38.84;9.10
9415;BME280;4746;35.664;139.738;2023-05-02T08:42:22;100907.91;;;38.24;9.04
9415;BME280;4746;35.664;139.738;2023-05-02T08:44:51;100889.97;;;37.69;9.14
9415;BME280;4746;35.664;139.738;2023-05-02T08:47:19;100904.66;;;37.27;9.32
9415;BME280;4746;35.664;139.738;2023-05-02T08:49:50;100907.69;;;36.76;9.67
9415;BME280;4746;35.664;139.738;2023-05-02T08:52:20;100915.25;;;36.31;9.86
9415;BME280;4746;35.664;139.738;2023-05-02T08:54:49;100914.69;;;35.98;10.16
9415;BME280;4746;35.664;139.738;2023-05-02T08:57:18;100910.13;;;35.69;9.82
9415;BME280;4746;35.664;139.738;2023-05-02T08:59:45;100934.53;;;35.33;10.14
9415;BME280;4746;35.664;139.738;2023-05-02T09:05:24;100927.66;;;34.88;10.76
9415;BME280;4746;35.664;139.738;2023-05-02T09:07:51;100924.06;;;34.35;10.68
9415;BME280;4746;35.664;139.738;2023-05-02T09:10:20;100918.50;;;33.60;11.26
9415;BME280;4746;35.664;139.738;2023-05-02T09:12:48;100923.41;;;32.96;11.03
9415;BME280;4746;35.664;139.738;2023-05-02T09:15:18;100919.59;;;32.39;11.31
9415;BME280;4746;35.664;139.738;2023-05-02T09:17:47;100928.19;;;31.68;11.76
9415;BME280;4746;35.664;139.738;2023-05-02T09:20:16;100937.94;;;30.89;11.80
9415;BME280;4746;35.664;139.738;2023-05-02T09:22:52;100935.88;;;29.98;12.56
9415;BME280;4746;35.664;139.738;2023-05-02T09:25:22;100959.09;;;29.19;12.55
9415;BME280;4746;35.664;139.738;2023-05-02T09:27:52;100944.84;;;28.60;13.14
9415;BME280;4746;35.664;139.738;2023-05-02T09:30:25;100972.09;;;28.11;13.71
9415;BME280;4746;35.664;139.738;2023-05-02T09:32:53;100984.38;;;27.61;13.91
9415;BME280;4746;35.664;139.738;2023-05-02T09:35:23;101006.72;;;27.18;14.06
9415;BME280;4746;35.664;139.738;2023-05-02T09:37:56;100996.00;;;26.85;14.58
9415;BME280;4746;35.664;139.738;2023-05-02T09:40:24;101010.78;;;26.51;14.51
9415;BME280;4746;35.664;139.738;2023-05-02T09:42:55;101019.34;;;26.16;15.02
9415;BME280;4746;35.664;139.738;2023-05-02T09:45:25;101025.41;;;25.98;15.17
9415;BME280;4746;35.664;139.738;2023-05-02T09:47:53;101026.97;;;25.83;15.58
9415;BME280;4746;35.664;139.738;2023-05-02T09:50:35;101030.31;;;25.65;15.45
9415;BME280;4746;35.664;139.738;2023-05-02T09:53:06;101037.16;;;25.47;16.12
9415;BME280;4746;35.664;139.738;2023-05-02T09:55:38;101040.28;;;25.35;16.42
9415;BME280;4746;35.664;139.738;2023-05-02T09:58:05;101044.13;;;25.27;16.13
9415;BME280;4746;35.664;139.738;2023-05-02T10:00:44;101050.22;;;25.27;16.40
9415;BME280;4746;35.664;139.738;2023-05-02T10:03:16;101044.53;;;25.17;16.98
9415;BME280;4746;35.664;139.738;2023-05-02T10:05:47;101051.88;;;25.09;17.11
9415;BME280;4746;35.664;139.738;2023-05-02T10:08:18;101054.56;;;25.06;17.12
9415;BME280;4746;35.664;139.738;2023-05-02T10:10:59;101056.50;;;25.01;17.57
9415;BME280;4746;35.664;139.738;2023-05-02T10:13:31;101060.28;;;24.94;17.27
9415;BME280;4746;35.664;139.738;2023-05-02T10:16:03;101075.28;;;24.90;18.18
9415;BME280;4746;35.664;139.738;2023-05-02T10:18:55;101084.06;;;24.89;18.37
9415;BME280;4746;35.664;139.738;2023-05-02T10:21:27;101076.59;;;24.79;18.54
9415;BME280;4746;35.664;139.738;2023-05-02T10:23:56;101098.63;;;24.73;19.57
9415;BME280;4746;35.664;139.738;2023-05-02T10:26:25;101111.00;;;24.70;22.43
9415;BME280;4746;35.664;139.738;2023-05-02T10:28:55;101116.53;;;24.62;24.12
9415;BME280;4746;35.664;139.738;2023-05-02T10:31:23;101122.25;;;24.49;25.73
9415;BME280;4746;35.664;139.738;2023-05-02T10:33:52;101121.00;;;24.35;26.73
9415;BME280;4746;35.664;139.738;2023-05-02T10:36:26;101140.59;;;24.23;28.02
9415;BME280;4746;35.664;139.738;2023-05-02T10:38:55;101159.44;;;24.08;29.10
9415;BME280;4746;35.664;139.738;2023-05-02T10:41:26;101163.22;;;24.00;29.46
9415;BME280;4746;35.664;139.738;2023-05-02T10:43:55;101166.44;;;23.82;30.35
9415;BME280;4746;35.664;139.738;2023-05-02T10:46:40;101171.03;;;23.74;29.75
9415;BME280;4746;35.664;139.738;2023-05-02T10:49:12;101180.13;;;23.61;30.72
9415;BME280;4746;35.664;139.738;2023-05-02T10:51:41;101176.19;;;23.48;31.08
9415;BME280;4746;35.664;139.738;2023-05-02T10:54:22;101176.38;;;23.42;31.08
9415;BME280;4746;35.664;139.738;2023-05-02T10:57:06;101180.16;;;23.32;31.35
9415;BME280;4746;35.664;139.738;2023-05-02T10:59:39;101189.28;;;23.19;32.17
9415;BME280;4746;35.664;139.738;2023-05-02T11:05:03;101200.09;;;23.06;32.62
9415;BME280;4746;35.664;139.738;2023-05-02T11:07:33;101212.53;;;22.97;33.41
9415;BME280;4746;35.664;139.738;2023-05-02T11:12:47;101219.41;;;23.01;33.86
9415;BME280;4746;35.664;139.738;2023-05-02T11:18:10;101231.94;;;22.90;34.43
9415;BME280;4746;35.664;139.738;2023-05-02T11:20:43;101222.38;;;22.89;34.66
9415;BME280;4746;35.664;139.738;2023-05-02T11:25:47;101241.81;;;22.79;35.29
9415;BME280;4746;35.664;139.738;2023-05-02T11:34:01;101253.53;;;22.63;35.58
9415;BME280;4746;35.664;139.738;2023-05-02T11:36:33;101260.59;;;22.59;35.44
9415;BME280;4746;35.664;139.738;2023-05-02T11:39:03;101271.25;;;22.52;35.72
9415;BME280;4746;35.664;139.738;2023-05-02T11:41:42;101266.25;;;22.43;35.99
9415;BME280;4746;35.664;139.738;2023-05-02T11:44:10;101271.53;;;22.40;36.38
9415;BME280;4746;35.664;139.738;2023-05-02T11:46:39;101280.19;;;22.42;36.71
9415;BME280;4746;35.664;139.738;2023-05-02T11:49:07;101274.25;;;22.36;36.69
9415;BME280;4746;35.664;139.738;2023-05-02T11:51:35;101286.41;;;22.37;37.00
9415;BME280;4746;35.664;139.738;2023-05-02T11:54:07;101287.34;;;22.34;36.77
9415;BME280;4746;35.664;139.738;2023-05-02T11:56:36;101290.94;;;22.30;37.07
9415;BME280;4746;35.664;139.738;2023-05-02T11:59:04;101291.84;;;22.28;36.63
9415;BME280;4746;35.664;139.738;2023-05-02T12:01:35;101301.38;;;22.30;36.36
9415;BME280;4746;35.664;139.738;2023-05-02T12:04:07;101296.16;;;22.30;36.04
9415;BME280;4746;35.664;139.738;2023-05-02T12:06:36;101305.78;;;22.28;36.19
9415;BME280;4746;35.664;139.738;2023-05-02T12:09:15;101305.69;;;22.33;36.04
9415;BME280;4746;35.664;139.738;2023-05-02T12:11:44;101307.50;;;22.28;36.04
9415;BME280;4746;35.664;139.738;2023-05-02T12:14:11;101315.38;;;22.26;35.88
9415;BME280;4746;35.664;139.738;2023-05-02T12:16:41;101312.78;;;22.26;35.70
9415;BME280;4746;35.664;139.738;2023-05-02T12:19:09;101310.09;;;22.29;35.92
9415;BME280;4746;35.664;139.738;2023-05-02T12:21:41;101319.56;;;22.35;35.84
9415;BME280;4746;35.664;139.738;2023-05-02T12:24:08;101319.47;;;22.38;35.75
9415;BME280;4746;35.664;139.738;2023-05-02T12:26:36;101320.34;;;22.38;35.63
9415;BME280;4746;35.664;139.738;2023-05-02T12:29:04;101316.91;;;22.36;35.97
9415;BME280;4746;35.664;139.738;2023-05-02T12:31:33;101325.63;;;22.35;36.12
9415;BME280;4746;35.664;139.738;2023-05-02T12:34:02;101340.47;;;22.35;36.19
9415;BME280;4746;35.664;139.738;2023-05-02T12:36:30;101334.44;;;22.31;36.13
9415;BME280;4746;35.664;139.738;2023-05-02T12:39:00;101340.53;;;22.32;36.62
9415;BME280;4746;35.664;139.738;2023-05-02T12:41:35;101335.28;;;22.32;36.81
9415;BME280;4746;35.664;139.738;2023-05-02T12:44:04;101333.66;;;22.26;36.53
9415;BME280;4746;35.664;139.738;2023-05-02T12:46:33;101330.25;;;22.23;37.12
9415;BME280;4746;35.664;139.738;2023-05-02T12:49:09;101337.13;;;22.28;37.35
9415;BME280;4746;35.664;139.738;2023-05-02T12:51:40;101336.28;;;22.25;37.22
9415;BME280;4746;35.664;139.738;2023-05-02T12:54:20;101329.34;;;22.24;37.18
9415;BME280;4746;35.664;139.738;2023-05-02T12:56:47;101327.78;;;22.15;37.71
9415;BME280;4746;35.664;139.738;2023-05-02T12:59:28;101332.13;;;22.16;37.42
9415;BME280;4746;35.664;139.738;2023-05-02T13:01:56;101324.50;;;22.07;37.33
9415;BME280;4746;35.664;139.738;2023-05-02T13:04:40;101330.63;;;22.06;37.71
9415;BME280;4746;35.664;139.738;2023-05-02T13:07:08;101335.94;;;22.02;38.01
9415;BME280;4746;35.664;139.738;2023-05-02T13:09:37;101330.69;;;22.03;38.08
9415;BME280;4746;35.664;139.738;2023-05-02T13:12:04;101320.31;;;22.00;38.23
9415;BME280;4746;35.664;139.738;2023-05-02T13:14:34;101326.50;;;21.96;38.26
9415;BME280;4746;35.664;139.738;2023-05-02T13:17:02;101329.13;;;21.95;38.07
9415;BME280;4746;35.664;139.738;2023-05-02T13:19:29;101335.28;;;21.92;37.81
9415;BME280;4746;35.664;139.738;2023-05-02T13:21:57;101336.19;;;21.90;38.27
9415;BME280;4746;35.664;139.738;2023-05-02T13:24:25;101339.56;;;21.96;38.19
9415;BME280;4746;35.664;139.738;2023-05-02T13:26:53;101346.50;;;21.96;38.07
9415;BME280;4746;35.664;139.738;2023-05-02T13:29:20;101337.00;;;21.93;38.28
9415;BME280;4746;35.664;139.738;2023-05-02T13:31:48;101337.00;;;21.93;38.31
9415;BME280;4746;35.664;139.738;2023-05-02T13:34:16;101337.00;;;21.93;38.10
9415;BME280;4746;35.664;139.738;2023-05-02T13:36:46;101341.38;;;21.91;38.17
9415;BME280;4746;35.664;139.738;2023-05-02T13:39:15;101342.28;;;21.90;38.31
9415;BME280;4746;35.664;139.738;2023-05-02T13:41:43;101344.06;;;21.88;38.55
9415;BME280;4746;35.664;139.738;2023-05-02T13:44:10;101354.50;;;21.88;38.65
9415;BME280;4746;35.664;139.738;2023-05-02T13:46:38;101352.72;;;21.90;38.46
9415;BME280;4746;35.664;139.738;2023-05-02T13:49:05;101350.41;;;21.75;39.01
9415;BME280;4746;35.664;139.738;2023-05-02T13:51:33;101360.97;;;21.69;39.07
9415;BME280;4746;35.664;139.738;2023-05-02T13:54:01;101360.94;;;21.71;38.91